createdAt,value
2022-09-01T00:00:50.339Z,3.60
2022-09-01T00:03:37.562Z,3.80
2022-09-01T00:06:25.420Z,3.40
2022-09-01T00:09:14.608Z,3.20
2022-09-01T00:12:01.376Z,3.30
2022-09-01T00:14:49.762Z,3.20
2022-09-01T00:17:36.415Z,3.67
2022-09-01T00:20:22.904Z,3.60
2022-09-01T00:23:09.557Z,3.00
2022-09-01T00:25:56.238Z,3.17
2022-09-01T00:28:43.194Z,3.20
2022-09-01T00:31:31.408Z,3.13
2022-09-01T00:34:18.527Z,3.10
2022-09-01T00:37:05.436Z,3.00
2022-09-01T00:39:52.152Z,2.90
2022-09-01T00:42:39.819Z,3.30
2022-09-01T00:45:26.539Z,3.30
2022-09-01T00:48:15.063Z,3.20
2022-09-01T00:51:03.060Z,3.50
2022-09-01T00:53:50.156Z,3.13
2022-09-01T00:56:38.691Z,3.33
2022-09-01T00:59:27.526Z,3.10
2022-09-01T01:02:14.503Z,3.10
2022-09-01T01:05:03.258Z,3.47
2022-09-01T01:07:50.344Z,3.13
2022-09-01T01:10:40.158Z,3.27
2022-09-01T01:13:27.584Z,3.37
2022-09-01T01:16:15.931Z,3.20
2022-09-01T01:19:03.408Z,3.30
2022-09-01T01:22:09.024Z,3.20
2022-09-01T01:24:57.138Z,3.13
2022-09-01T01:27:43.835Z,3.20
2022-09-01T01:30:37.010Z,3.20
2022-09-01T01:33:26.695Z,3.47
2022-09-01T01:36:16.451Z,3.30
2022-09-01T01:39:07.800Z,2.87
2022-09-01T01:41:58.944Z,3.23
2022-09-01T01:44:46.476Z,3.20
2022-09-01T01:47:33.217Z,3.20
2022-09-01T01:50:20.132Z,3.10
2022-09-01T01:53:10.910Z,2.80
2022-09-01T01:56:00.048Z,2.93
2022-09-01T01:58:47.947Z,3.50
2022-09-01T02:01:34.726Z,3.30
2022-09-01T02:04:22.528Z,3.50
2022-09-01T02:07:12.350Z,3.13
2022-09-01T02:09:58.900Z,3.30
2022-09-01T02:12:46.345Z,3.17
2022-09-01T02:15:38.773Z,2.90
2022-09-01T02:18:27.973Z,3.37
2022-09-01T02:21:18.535Z,3.33
2022-09-01T02:24:08.506Z,2.90
2022-09-01T02:26:55.525Z,2.83
2022-09-01T02:29:43.555Z,3.10
2022-09-01T02:32:32.097Z,2.67
2022-09-01T02:35:19.075Z,3.20
2022-09-01T02:38:06.284Z,3.00
2022-09-01T02:40:53.694Z,3.33
2022-09-01T02:43:40.127Z,3.10
2022-09-01T02:46:26.780Z,2.80
2022-09-01T02:49:19.787Z,2.90
2022-09-01T02:52:06.280Z,3.23
2022-09-01T02:54:52.544Z,3.07
2022-09-01T02:57:39.036Z,3.00
2022-09-01T03:00:33.507Z,2.77
2022-09-01T03:03:21.825Z,3.17
2022-09-01T03:06:10.248Z,2.80
2022-09-01T03:09:00.327Z,3.20
2022-09-01T03:11:49.371Z,2.83
2022-09-01T03:14:35.803Z,3.00
2022-09-01T03:17:22.340Z,3.33
2022-09-01T03:20:09.920Z,3.13
2022-09-01T03:22:59.199Z,2.80
2022-09-01T03:25:47.439Z,2.77
2022-09-01T03:28:34.048Z,3.70
2022-09-01T03:31:21.522Z,3.27
2022-09-01T03:34:11.047Z,3.03
2022-09-01T03:36:57.834Z,3.33
2022-09-01T03:39:46.413Z,3.10
2022-09-01T03:42:37.136Z,3.27
2022-09-01T03:45:25.751Z,3.43
2022-09-01T03:48:12.765Z,3.13
2022-09-01T03:51:02.611Z,3.40
2022-09-01T03:53:50.613Z,3.07
2022-09-01T03:56:41.588Z,3.10
2022-09-01T03:59:30.003Z,3.10
2022-09-01T04:02:16.890Z,3.37
2022-09-01T04:05:07.757Z,2.93
2022-09-01T04:07:55.952Z,3.10
2022-09-01T04:10:47.849Z,3.30
2022-09-01T04:13:40.959Z,3.10
2022-09-01T04:16:47.204Z,3.43
2022-09-01T04:19:38.493Z,3.07
2022-09-01T04:22:29.234Z,3.07
2022-09-01T04:25:16.285Z,3.30
2022-09-01T04:28:12.898Z,3.97
2022-09-01T04:31:05.842Z,3.00
2022-09-01T04:33:53.745Z,3.20
2022-09-01T04:36:41.790Z,3.13
2022-09-01T04:39:29.410Z,3.50
2022-09-01T04:42:16.577Z,3.60
2022-09-01T04:45:10.002Z,3.60
2022-09-01T04:48:00.899Z,3.43
2022-09-01T04:50:49.433Z,3.47
2022-09-01T04:53:36.558Z,3.30
2022-09-01T04:56:23.639Z,3.10
2022-09-01T04:59:12.086Z,3.20
2022-09-01T05:02:00.680Z,3.37
2022-09-01T05:04:49.949Z,3.17
2022-09-01T05:07:38.070Z,3.27
2022-09-01T05:10:30.068Z,3.37
2022-09-01T05:13:18.583Z,3.03
2022-09-01T05:16:12.921Z,3.00
2022-09-01T05:19:01.502Z,3.17
2022-09-01T05:21:50.531Z,3.10
2022-09-01T05:24:41.911Z,3.30
2022-09-01T05:27:29.560Z,3.40
2022-09-01T05:30:18.022Z,3.40
2022-09-01T05:33:05.053Z,3.40
2022-09-01T05:35:56.506Z,3.73
2022-09-01T05:38:44.753Z,3.27
2022-09-01T05:41:32.861Z,3.20
2022-09-01T05:44:19.330Z,2.73
2022-09-01T05:47:12.167Z,3.07
2022-09-01T05:50:14.263Z,3.17
2022-09-01T05:53:01.357Z,3.10
2022-09-01T05:55:52.713Z,3.17
2022-09-01T06:01:50.249Z,3.53
2022-09-01T06:04:40.665Z,2.73
2022-09-01T06:07:28.631Z,2.97
2022-09-01T06:10:15.867Z,2.90
2022-09-01T06:13:03.777Z,3.10
2022-09-01T06:15:51.165Z,2.83
2022-09-01T06:18:41.106Z,3.00
2022-09-01T06:21:29.100Z,3.67
2022-09-01T06:24:15.711Z,3.40
2022-09-01T06:27:02.881Z,2.77
2022-09-01T06:29:54.767Z,3.17
2022-09-01T06:32:44.159Z,3.03
2022-09-01T06:35:30.649Z,3.00
2022-09-01T06:38:17.589Z,3.10
2022-09-01T06:41:05.891Z,2.83
2022-09-01T06:43:54.075Z,3.33
2022-09-01T06:46:42.144Z,3.03
2022-09-01T06:49:33.077Z,3.30
2022-09-01T06:52:20.885Z,2.90
2022-09-01T06:55:08.175Z,2.97
2022-09-01T06:58:16.877Z,2.80
2022-09-01T07:01:06.712Z,3.27
2022-09-01T07:03:57.433Z,2.50
2022-09-01T07:07:00.495Z,2.63
2022-09-01T07:10:05.947Z,3.03
2022-09-01T07:13:09.006Z,2.70
2022-09-01T07:19:06.572Z,2.63
2022-09-01T07:22:09.683Z,2.50
2022-09-01T07:25:16.708Z,2.23
2022-09-01T07:28:04.075Z,2.93
2022-09-01T07:30:53.124Z,2.77
2022-09-01T07:33:41.793Z,2.63
2022-09-01T07:36:31.552Z,2.40
2022-09-01T07:45:47.695Z,2.60
2022-09-01T07:48:36.945Z,2.60
2022-09-01T07:51:43.418Z,2.73
2022-09-01T07:54:30.267Z,2.80
2022-09-01T07:57:16.779Z,2.57
2022-09-01T08:00:03.411Z,2.37
2022-09-01T08:02:55.172Z,2.70
2022-09-01T08:05:47.581Z,2.60
2022-09-01T08:08:36.626Z,2.30
2022-09-01T08:11:58.180Z,2.60
2022-09-01T08:14:34.180Z,2.60
2022-09-01T08:17:51.553Z,2.83
2022-09-01T08:20:28.191Z,2.20
2022-09-01T08:23:18.139Z,2.43
2022-09-01T08:26:09.052Z,2.60
2022-09-01T08:28:56.177Z,3.00
2022-09-01T08:31:42.601Z,2.87
2022-09-01T08:34:32.773Z,3.00
2022-09-01T08:37:20.375Z,2.97
2022-09-01T08:40:08.234Z,2.83
2022-09-01T08:43:10.888Z,2.23
2022-09-01T08:46:10.693Z,2.70
2022-09-01T08:52:15.226Z,2.60
2022-09-01T08:55:07.126Z,2.70
2022-09-01T08:57:59.136Z,2.50
2022-09-01T09:00:57.925Z,2.30
2022-09-01T09:03:57.049Z,2.57
2022-09-01T09:06:51.408Z,2.77
2022-09-01T09:09:51.113Z,2.43
2022-09-01T09:12:57.613Z,2.70
2022-09-01T09:15:48.311Z,2.60
2022-09-01T09:18:54.728Z,2.70
2022-09-01T09:21:44.580Z,2.37
2022-09-01T09:24:47.314Z,2.73
2022-09-01T09:27:36.458Z,2.70
2022-09-01T09:30:26.512Z,2.10
2022-09-01T09:33:51.343Z,2.10
2022-09-01T09:36:41.700Z,2.70
2022-09-01T09:39:29.486Z,2.30
2022-09-01T09:42:18.043Z,2.80
2022-09-01T09:45:04.963Z,3.10
2022-09-01T09:47:52.408Z,2.33
2022-09-01T09:50:40.530Z,2.10
2022-09-01T09:53:32.612Z,2.50
2022-09-01T09:56:21.108Z,2.63
2022-09-01T09:59:45.785Z,2.30
2022-09-01T10:02:34.604Z,2.30
2022-09-01T10:05:37.429Z,2.00
2022-09-01T10:08:45.509Z,2.20
2022-09-01T10:11:41.344Z,2.00
2022-09-01T10:14:52.348Z,2.33
2022-09-01T10:17:43.630Z,2.10
2022-09-01T10:20:30.703Z,2.30
2022-09-01T10:23:18.482Z,2.23
2022-09-01T10:26:12.330Z,2.10
2022-09-01T10:29:02.800Z,2.30
2022-09-01T10:31:49.403Z,2.10
2022-09-01T10:34:42.032Z,2.20
2022-09-01T10:37:29.257Z,2.17
2022-09-01T10:40:43.827Z,2.13
2022-09-01T10:43:43.135Z,1.97
2022-09-01T10:46:51.023Z,2.10
2022-09-01T10:50:07.428Z,2.23
2022-09-01T10:52:59.180Z,1.80
2022-09-01T10:55:59.059Z,1.60
2022-09-01T11:02:35.807Z,1.43
2022-09-01T11:05:21.349Z,1.73
2022-09-01T11:08:41.090Z,1.60
2022-09-01T11:11:36.131Z,1.60
2022-09-01T11:14:27.452Z,1.63
2022-09-01T11:17:18.559Z,2.10
2022-09-01T11:20:10.477Z,1.77
2022-09-01T11:23:03.798Z,1.57
2022-09-01T11:26:19.152Z,1.77
2022-09-01T11:28:58.496Z,1.73
2022-09-01T11:31:46.603Z,1.50
2022-09-01T11:34:42.095Z,1.77
2022-09-01T11:37:28.817Z,1.57
2022-09-01T11:40:22.633Z,2.27
2022-09-01T11:43:14.944Z,1.50
2022-09-01T11:46:11.509Z,1.70
2022-09-01T11:49:04.564Z,1.67
2022-09-01T11:51:51.269Z,1.57
2022-09-01T11:54:41.533Z,1.70
2022-09-01T11:57:31.545Z,1.70
2022-09-01T12:00:28.545Z,1.40
2022-09-01T12:03:23.599Z,1.50
2022-09-01T12:06:14.254Z,1.60
2022-09-01T12:09:04.095Z,1.70
2022-09-01T12:11:51.311Z,1.80
2022-09-01T12:15:01.964Z,1.60
2022-09-01T12:17:45.110Z,1.40
2022-09-01T12:20:38.535Z,1.67
2022-09-01T12:23:29.135Z,1.70
2022-09-01T12:26:20.099Z,1.77
2022-09-01T12:29:08.041Z,1.60
2022-09-01T12:31:55.862Z,1.70
2022-09-01T12:34:44.704Z,1.60
2022-09-01T12:37:31.456Z,1.52
2022-09-01T12:40:32.650Z,1.40
2022-09-01T12:43:33.355Z,1.35
2022-09-01T12:46:41.373Z,1.15
2022-09-01T12:49:37.284Z,1.30
2022-09-01T12:52:33.868Z,1.60
2022-09-01T12:58:32.317Z,1.40
2022-09-01T13:01:32.357Z,1.57
2022-09-01T13:04:29.876Z,2.20
2022-09-01T13:07:17.010Z,1.80
2022-09-01T13:10:07.274Z,2.20
2022-09-01T13:12:53.843Z,1.60
2022-09-01T13:15:48.204Z,2.17
2022-09-01T13:19:10.366Z,2.10
2022-09-01T13:24:34.921Z,1.80
2022-09-01T13:27:22.210Z,1.90
2022-09-01T13:30:09.520Z,1.70
2022-09-01T13:36:42.598Z,1.30
2022-09-01T13:39:12.602Z,1.23
2022-09-01T13:41:59.056Z,1.30
2022-09-01T13:44:49.578Z,1.30
2022-09-01T13:48:15.073Z,1.27
2022-09-01T13:53:56.872Z,1.30
2022-09-01T13:56:43.856Z,1.20
2022-09-01T13:59:30.899Z,1.40
2022-09-01T14:02:17.649Z,1.20
2022-09-01T14:05:06.105Z,1.30
2022-09-01T14:07:54.527Z,1.45
2022-09-01T14:10:42.895Z,1.50
2022-09-01T14:13:31.227Z,1.50
2022-09-01T14:16:17.954Z,1.42
2022-09-01T14:19:05.140Z,1.45
2022-09-01T14:21:52.000Z,1.40
2022-09-01T14:24:40.940Z,1.67
2022-09-01T14:27:28.221Z,1.93
2022-09-01T14:30:18.478Z,1.77
2022-09-01T14:33:07.789Z,1.67
2022-09-01T14:35:54.479Z,1.63
2022-09-01T14:38:40.979Z,1.40
2022-09-01T14:41:29.017Z,1.60
2022-09-01T14:44:15.341Z,1.70
2022-09-01T14:47:02.130Z,1.67
2022-09-01T14:49:52.426Z,1.85
2022-09-01T14:52:39.032Z,1.60
2022-09-01T14:55:28.313Z,1.60
2022-09-01T14:57:59.802Z,1.63
2022-09-01T15:00:31.709Z,1.50
2022-09-01T15:03:00.178Z,1.90
2022-09-01T15:05:28.559Z,1.70
2022-09-01T15:07:56.701Z,1.70
2022-09-01T15:10:27.215Z,1.67
2022-09-01T15:12:58.837Z,1.60
2022-09-01T15:15:28.069Z,1.70
2022-09-01T15:17:57.427Z,1.80
2022-09-01T15:20:47.379Z,1.93
2022-09-01T15:23:16.712Z,2.00
2022-09-01T15:25:45.480Z,2.27
2022-09-01T15:28:15.621Z,2.10
2022-09-01T15:30:46.512Z,2.10
2022-09-01T15:33:16.206Z,2.23
2022-09-01T15:35:44.996Z,2.10
2022-09-01T15:38:19.554Z,2.30
2022-09-01T15:40:57.073Z,2.30
2022-09-01T15:43:29.027Z,1.70
2022-09-01T15:45:58.289Z,2.27
2022-09-01T15:48:27.524Z,1.60
2022-09-01T15:51:03.657Z,2.13
2022-09-01T15:53:31.812Z,1.90
2022-09-01T15:55:59.875Z,2.00
2022-09-01T15:58:39.087Z,2.10
2022-09-01T16:01:12.830Z,2.23
2022-09-01T16:03:41.349Z,2.00
2022-09-01T16:06:10.203Z,2.27
2022-09-01T16:08:38.422Z,1.80
2022-09-01T16:11:09.831Z,2.07
2022-09-01T16:13:40.375Z,1.63
2022-09-01T16:16:21.404Z,2.00
2022-09-01T16:18:56.098Z,2.00
2022-09-01T16:21:34.896Z,1.93
2022-09-01T16:24:08.825Z,2.07
2022-09-01T16:26:38.092Z,2.20
2022-09-01T16:29:14.063Z,2.27
2022-09-01T16:31:42.957Z,1.57
2022-09-01T16:34:18.232Z,1.90
2022-09-01T16:37:00.671Z,2.10
2022-09-01T16:39:39.277Z,1.90
2022-09-01T16:42:19.073Z,2.53
2022-09-01T16:45:03.073Z,1.97
2022-09-01T16:47:44.544Z,1.70
2022-09-01T16:50:23.887Z,2.30
2022-09-01T16:53:10.081Z,2.27
2022-09-01T16:55:46.137Z,1.90
2022-09-01T16:58:22.576Z,1.90
2022-09-01T17:01:02.090Z,1.90
2022-09-01T17:03:42.735Z,2.13
2022-09-01T17:06:20.791Z,2.13
2022-09-01T17:08:55.383Z,2.03
2022-09-01T17:11:32.846Z,2.30
2022-09-01T17:14:02.864Z,1.80
2022-09-01T17:16:37.248Z,2.43
2022-09-01T17:19:07.826Z,2.50
2022-09-01T17:21:41.772Z,2.03
2022-09-01T17:24:31.975Z,1.80
2022-09-01T17:27:07.644Z,2.30
2022-09-01T17:29:43.514Z,2.00
2022-09-01T17:32:36.701Z,2.07
2022-09-01T17:35:15.055Z,2.00
2022-09-01T17:37:55.911Z,2.37
2022-09-01T17:40:33.795Z,2.10
2022-09-01T17:43:09.744Z,2.40
2022-09-01T17:45:51.180Z,2.20
2022-09-01T17:48:27.655Z,1.90
2022-09-01T17:51:06.258Z,2.10
2022-09-01T17:53:44.071Z,2.17
2022-09-01T17:56:30.483Z,2.23
2022-09-01T17:59:11.094Z,2.10
2022-09-01T18:01:47.678Z,2.23
2022-09-01T18:04:38.670Z,1.90
2022-09-01T18:07:15.942Z,1.97
2022-09-01T18:09:48.486Z,2.10
2022-09-01T18:12:22.908Z,1.77
2022-09-01T18:14:58.120Z,2.50
2022-09-01T18:17:31.457Z,2.20
2022-09-01T18:20:08.197Z,2.03
2022-09-01T18:22:41.708Z,1.70
2022-09-01T18:25:18.426Z,2.30
2022-09-01T18:27:50.373Z,2.50
2022-09-01T18:30:36.405Z,2.57
2022-09-01T18:33:21.938Z,2.63
2022-09-01T18:36:02.982Z,2.33
2022-09-01T18:38:40.921Z,2.10
2022-09-01T18:41:30.246Z,3.00
2022-09-01T18:44:05.805Z,3.00
2022-09-01T18:46:40.732Z,2.30
2022-09-01T18:49:17.964Z,2.40
2022-09-01T18:51:57.388Z,2.50
2022-09-01T18:54:34.541Z,2.50
2022-09-01T18:57:04.847Z,2.77
2022-09-01T18:59:50.341Z,2.60
2022-09-01T19:02:31.678Z,2.70
2022-09-01T19:05:03.457Z,2.60
2022-09-01T19:07:42.694Z,3.00
2022-09-01T19:10:18.693Z,3.03
2022-09-01T19:12:55.054Z,2.80
2022-09-01T19:15:31.327Z,2.50
2022-09-01T19:18:12.624Z,2.70
2022-09-01T19:20:48.150Z,2.30
2022-09-01T19:23:26.089Z,3.37
2022-09-01T19:26:00.259Z,2.40
2022-09-01T19:28:39.937Z,2.23
2022-09-01T19:31:17.945Z,2.60
2022-09-01T19:33:51.852Z,2.17
2022-09-01T19:36:24.970Z,2.57
2022-09-01T19:38:54.833Z,2.33
2022-09-01T19:41:28.483Z,2.20
2022-09-01T19:44:05.297Z,2.80
2022-09-01T19:46:40.975Z,2.60
2022-09-01T19:49:18.294Z,2.57
2022-09-01T19:51:54.875Z,2.50
2022-09-01T19:54:30.619Z,2.40
2022-09-01T19:57:09.897Z,2.60
2022-09-01T19:59:51.003Z,2.30
2022-09-01T20:02:27.441Z,3.03
2022-09-01T20:05:03.598Z,2.53
2022-09-01T20:07:37.290Z,2.37
2022-09-01T20:10:23.252Z,2.40
2022-09-01T20:13:01.774Z,2.60
2022-09-01T20:15:36.077Z,2.87
2022-09-01T20:18:08.836Z,2.60
2022-09-01T20:20:44.962Z,2.63
2022-09-01T20:23:22.661Z,2.60
2022-09-01T20:26:04.553Z,2.80
2022-09-01T20:28:45.353Z,2.37
2022-09-01T20:31:22.924Z,2.33
2022-09-01T20:33:56.150Z,2.73
2022-09-01T20:36:30.545Z,2.37
2022-09-01T20:39:21.065Z,2.60
2022-09-01T20:41:58.213Z,2.37
2022-09-01T20:44:41.886Z,2.40
2022-09-01T20:47:10.221Z,2.67
2022-09-01T20:49:39.772Z,2.80
2022-09-01T20:52:15.168Z,2.30
2022-09-01T20:54:51.186Z,2.87
2022-09-01T20:57:33.487Z,2.47
2022-09-01T21:00:07.946Z,2.60
2022-09-01T21:02:55.413Z,2.57
2022-09-01T21:05:32.056Z,2.67
2022-09-01T21:08:20.887Z,2.67
2022-09-01T21:10:58.121Z,2.70
2022-09-01T21:13:45.213Z,2.73
2022-09-01T21:16:21.617Z,2.83
2022-09-01T21:18:59.072Z,2.80
2022-09-01T21:21:36.074Z,2.80
2022-09-01T21:24:04.669Z,3.00
2022-09-01T21:26:36.340Z,2.73
2022-09-01T21:29:25.556Z,2.70
2022-09-01T21:31:53.727Z,2.60
2022-09-01T21:34:21.761Z,2.50
2022-09-01T21:36:49.845Z,2.70
2022-09-01T21:39:21.857Z,2.40
2022-09-01T21:41:49.971Z,2.50
2022-09-01T21:44:19.403Z,2.80
2022-09-01T21:46:47.574Z,2.70
2022-09-01T21:49:15.643Z,3.00
2022-09-01T21:51:43.684Z,2.70
2022-09-01T21:54:11.730Z,2.50
2022-09-01T21:56:39.815Z,2.83
2022-09-01T21:59:07.826Z,2.80
2022-09-01T22:01:37.399Z,2.77
2022-09-01T22:04:06.027Z,2.80
2022-09-01T22:06:34.447Z,3.20
2022-09-01T22:09:03.295Z,2.80
2022-09-01T22:11:48.862Z,2.80
2022-09-01T22:14:16.924Z,3.00
2022-09-01T22:16:46.847Z,2.53
2022-09-01T22:19:15.268Z,3.27
2022-09-01T22:21:43.562Z,3.13
2022-09-01T22:24:11.984Z,3.10
2022-09-01T22:26:40.249Z,3.10
2022-09-01T22:29:09.009Z,2.50
2022-09-01T22:31:39.459Z,2.83
2022-09-01T22:34:09.136Z,3.10
2022-09-01T22:36:40.604Z,2.83
2022-09-01T22:39:10.755Z,2.70
2022-09-01T22:41:42.509Z,3.27
2022-09-01T22:44:11.541Z,3.27
2022-09-01T22:46:40.473Z,2.90
2022-09-01T22:49:10.919Z,2.67
2022-09-01T22:51:40.004Z,2.90
2022-09-01T22:54:09.556Z,2.93
2022-09-01T22:56:40.225Z,3.33
2022-09-01T22:59:10.765Z,3.23
2022-09-01T23:01:42.573Z,3.13
2022-09-01T23:04:14.252Z,2.73
2022-09-01T23:06:44.925Z,2.90
2022-09-01T23:09:14.008Z,2.80
2022-09-01T23:11:42.414Z,2.80
2022-09-01T23:14:10.945Z,2.90
2022-09-01T23:16:39.326Z,4.23
2022-09-01T23:19:07.756Z,3.80
2022-09-01T23:21:39.589Z,2.93
2022-09-01T23:24:08.255Z,2.90
2022-09-01T23:26:36.730Z,3.13
2022-09-01T23:29:05.951Z,3.30
2022-09-01T23:31:36.833Z,3.57
2022-09-01T23:34:06.955Z,3.33
2022-09-01T23:36:37.773Z,3.10
2022-09-01T23:39:06.288Z,2.90
2022-09-01T23:41:35.903Z,2.73
2022-09-01T23:44:06.335Z,3.03
2022-09-01T23:46:37.921Z,2.73
2022-09-01T23:49:06.315Z,2.70
2022-09-01T23:51:35.285Z,2.77
2022-09-01T23:54:04.956Z,2.97
2022-09-01T23:56:33.349Z,3.70
2022-09-01T23:59:01.875Z,3.00
